Time;durP1;ratioP1;P1;durP2;ratioP2;P2;SDS_P1;SDS_P2;PMS_P1;PMS_P2;Temp;Humidity;BMP_temperature;BMP_pressure;BME280_temperature;BME280_humidity;BME280_pressure;Samples;Min_cycle;Max_cycle;Signal;HPM_P1;HPM_P2
2023/12/22 00:01:21;;;;;;;29.95;27.70;;;;;;;;;;5044759;28;20041;-74
2023/12/22 00:03:52;;;;;;;32.05;29.23;;;;;;;;;;5051509;28;20403;-74
2023/12/22 00:06:23;;;;;;;32.75;30.27;;;;;;;;;;5065463;28;20075;-74
2023/12/22 00:08:56;;;;;;;72.20;67.68;;;;;;;;;;5065138;28;20036;-75
2023/12/22 00:11:27;;;;;;;38.72;36.30;;;;;;;;;;5065064;28;20048;-75
2023/12/22 00:13:58;;;;;;;24.85;22.40;;;;;;;;;;5063918;28;20044;-74
2023/12/22 00:16:29;;;;;;;24.15;22.15;;;;;;;;;;5063884;28;20127;-75
2023/12/22 00:19:00;;;;;;;72.00;67.60;;;;;;;;;;5063673;28;20521;-74
2023/12/22 00:21:33;;;;;;;35.05;32.70;;;;;;;;;;5056623;28;20059;-75
2023/12/22 00:24:04;;;;;;;20.98;19.15;;;;;;;;;;5054324;28;20515;-75
2023/12/22 00:26:33;;;;;;;30.20;27.55;;;;;;;;;;5053361;28;20052;-74
2023/12/22 00:29:05;;;;;;;71.93;67.22;;;;;;;;;;5051318;28;20500;-75
2023/12/22 00:31:35;;;;;;;74.15;69.53;;;;;;;;;;5053402;28;20044;-76
2023/12/22 00:34:06;;;;;;;70.97;66.60;;;;;;;;;;5054678;28;20708;-74
2023/12/22 00:36:36;;;;;;;63.60;59.35;;;;;;;;;;5053295;28;20412;-75
2023/12/22 00:39:08;;;;;;;62.17;58.03;;;;;;;;;;5052852;28;20033;-75
2023/12/22 00:41:40;;;;;;;33.95;31.40;;;;;;;;;;5043450;28;20053;-74
2023/12/22 00:44:11;;;;;;;29.52;27.15;;;;;;;;;;5042844;28;20056;-74
2023/12/22 00:46:41;;;;;;;49.33;45.95;;;;;;;;;;5025652;28;20053;-76
2023/12/22 00:49:12;;;;;;;24.95;23.02;;;;;;;;;;5041517;28;20041;-74
2023/12/22 00:51:44;;;;;;;30.85;28.50;;;;;;;;;;5043746;28;20052;-74
2023/12/22 00:54:14;;;;;;;47.88;44.63;;;;;;;;;;5043398;28;20053;-74
2023/12/22 00:56:44;;;;;;;39.33;36.42;;;;;;;;;;5043579;28;20045;-75
2023/12/22 00:59:14;;;;;;;30.60;28.73;;;;;;;;;;5043635;28;20049;-73
2023/12/22 01:01:46;;;;;;;31.08;28.77;;;;;;;;;;5042893;28;20048;-75
2023/12/22 01:04:21;;;;;;;30.77;28.63;;;;;;;;;;5041977;28;20049;-75
2023/12/22 01:06:52;;;;;;;40.78;38.30;;;;;;;;;;5043897;28;20045;-73
2023/12/22 01:09:23;;;;;;;33.08;30.88;;;;;;;;;;5043905;28;20484;-79
2023/12/22 01:11:54;;;;;;;28.88;26.73;;;;;;;;;;5043714;28;20496;-73
2023/12/22 01:14:26;;;;;;;28.52;26.42;;;;;;;;;;5044202;28;20059;-74
2023/12/22 01:16:56;;;;;;;44.10;41.17;;;;;;;;;;5043356;28;20056;-74
2023/12/22 01:19:26;;;;;;;39.13;36.03;;;;;;;;;;5043332;28;20076;-75
2023/12/22 01:21:57;;;;;;;33.15;30.48;;;;;;;;;;5043678;28;20057;-75
2023/12/22 01:24:28;;;;;;;32.83;30.60;;;;;;;;;;5041538;28;20060;-75
2023/12/22 01:26:59;;;;;;;39.65;36.38;;;;;;;;;;5043069;28;20044;-73
2023/12/22 01:29:30;;;;;;;33.42;31.10;;;;;;;;;;5043189;28;20526;-74
2023/12/22 01:31:59;;;;;;;29.52;27.58;;;;;;;;;;5043489;28;20053;-76
2023/12/22 01:34:30;;;;;;;26.88;24.83;;;;;;;;;;5043268;28;20067;-74
2023/12/22 01:37:01;;;;;;;27.48;25.30;;;;;;;;;;5043129;28;20053;-74
2023/12/22 01:39:31;;;;;;;33.95;31.08;;;;;;;;;;5043179;28;20052;-74
2023/12/22 01:42:01;;;;;;;26.92;25.10;;;;;;;;;;5041611;28;20049;-74
2023/12/22 01:44:31;;;;;;;28.10;25.88;;;;;;;;;;5042845;28;20049;-74
2023/12/22 01:47:02;;;;;;;37.13;34.70;;;;;;;;;;5043197;28;20052;-73
2023/12/22 01:49:33;;;;;;;34.90;32.65;;;;;;;;;;5042226;28;20055;-75
2023/12/22 01:52:05;;;;;;;33.17;30.42;;;;;;;;;;5042688;28;20068;-76
2023/12/22 01:54:36;;;;;;;31.42;29.40;;;;;;;;;;5042653;28;20037;-74
2023/12/22 01:57:08;;;;;;;31.73;29.33;;;;;;;;;;5043098;28;20415;-75
2023/12/22 01:59:38;;;;;;;34.35;31.95;;;;;;;;;;5043536;28;20056;-75
2023/12/22 02:02:08;;;;;;;32.85;30.58;;;;;;;;;;5042521;28;20041;-74
2023/12/22 02:04:41;;;;;;;33.30;30.90;;;;;;;;;;5040870;28;20060;-74
2023/12/22 02:07:14;;;;;;;32.10;29.52;;;;;;;;;;5041821;28;20056;-74
2023/12/22 02:09:45;;;;;;;32.63;30.30;;;;;;;;;;5041863;28;20052;-75
2023/12/22 02:12:15;;;;;;;36.03;33.47;;;;;;;;;;5042989;28;20513;-75
2023/12/22 02:14:45;;;;;;;37.25;34.47;;;;;;;;;;5042261;28;20052;-74
2023/12/22 02:17:23;;;;;;;41.25;37.85;;;;;;;;;;5042526;28;20487;-74
2023/12/22 02:19:55;;;;;;;35.53;33.25;;;;;;;;;;5042762;28;20416;-75
2023/12/22 02:22:29;;;;;;;34.78;32.30;;;;;;;;;;5042533;28;20049;-75
2023/12/22 02:25:00;;;;;;;31.80;29.50;;;;;;;;;;5041693;28;20994;-75
2023/12/22 02:27:46;;;;;;;43.15;40.00;;;;;;;;;;5040718;28;20079;-75
2023/12/22 02:30:56;;;;;;;31.83;28.98;;;;;;;;;;5042385;28;20439;-75
2023/12/22 02:33:30;;;;;;;39.67;35.85;;;;;;;;;;5040837;28;20048;-74
2023/12/22 02:36:06;;;;;;;33.42;30.67;;;;;;;;;;5042748;28;20523;-75
2023/12/22 02:38:37;;;;;;;33.70;31.25;;;;;;;;;;5042172;28;20527;-75
2023/12/22 02:41:10;;;;;;;36.10;33.22;;;;;;;;;;5040673;28;20040;-75
2023/12/22 02:43:42;;;;;;;34.22;31.23;;;;;;;;;;5041800;28;20060;-73
2023/12/22 02:46:16;;;;;;;30.83;28.40;;;;;;;;;;5041690;28;20045;-73
2023/12/22 02:48:46;;;;;;;33.60;31.40;;;;;;;;;;5041459;28;20530;-73
2023/12/22 02:51:17;;;;;;;28.80;26.08;;;;;;;;;;5042323;28;20049;-76
2023/12/22 02:53:48;;;;;;;28.65;26.48;;;;;;;;;;5042208;28;20056;-75
2023/12/22 02:56:19;;;;;;;26.02;23.70;;;;;;;;;;5041879;28;20057;-76
2023/12/22 02:58:49;;;;;;;25.92;23.95;;;;;;;;;;5041739;28;20408;-73
2023/12/22 03:01:21;;;;;;;28.33;25.92;;;;;;;;;;5042005;28;20071;-74
2023/12/22 03:03:52;;;;;;;34.08;30.88;;;;;;;;;;5042408;28;20041;-75
2023/12/22 03:06:22;;;;;;;33.40;30.65;;;;;;;;;;5042128;28;20052;-81
2023/12/22 03:08:52;;;;;;;32.45;29.75;;;;;;;;;;5041331;28;20415;-75
2023/12/22 03:11:24;;;;;;;42.85;39.60;;;;;;;;;;5042145;28;20049;-74
2023/12/22 03:13:55;;;;;;;34.15;31.33;;;;;;;;;;5042159;28;20068;-73
2023/12/22 03:16:25;;;;;;;37.80;34.92;;;;;;;;;;5041602;28;20518;-75
2023/12/22 03:18:55;;;;;;;44.17;40.38;;;;;;;;;;5041565;28;20045;-75
2023/12/22 03:21:25;;;;;;;39.10;35.17;;;;;;;;;;5041283;28;20519;-75
2023/12/22 03:23:56;;;;;;;39.03;35.75;;;;;;;;;;5042033;28;20515;-73
2023/12/22 03:26:31;;;;;;;33.53;29.90;;;;;;;;;;5041336;28;20064;-75
2023/12/22 03:29:01;;;;;;;35.42;32.33;;;;;;;;;;5041557;28;20045;-74
2023/12/22 03:31:31;;;;;;;35.47;32.40;;;;;;;;;;5041358;28;20052;-73
2023/12/22 03:34:02;;;;;;;35.47;32.03;;;;;;;;;;5041086;28;20072;-73
2023/12/22 03:36:32;;;;;;;45.35;41.15;;;;;;;;;;5041479;28;20045;-73
2023/12/22 03:39:05;;;;;;;43.90;40.63;;;;;;;;;;5041741;28;20052;-75
2023/12/22 03:41:35;;;;;;;46.95;43.05;;;;;;;;;;5041607;28;20052;-75
2023/12/22 03:44:05;;;;;;;33.28;30.20;;;;;;;;;;5039662;28;20057;-73
2023/12/22 03:46:35;;;;;;;38.47;35.25;;;;;;;;;;5041191;28;20514;-74
2023/12/22 03:49:06;;;;;;;41.95;38.28;;;;;;;;;;5043541;28;20049;-74
2023/12/22 03:51:37;;;;;;;47.13;43.38;;;;;;;;;;5045264;28;20040;-74
2023/12/22 03:54:08;;;;;;;49.78;45.58;;;;;;;;;;5045120;28;20500;-74
2023/12/22 03:56:38;;;;;;;45.70;42.08;;;;;;;;;;5044882;28;20048;-73
2023/12/22 03:59:08;;;;;;;59.90;54.92;;;;;;;;;;5044486;28;20053;-74
2023/12/22 04:01:40;;;;;;;56.53;52.20;;;;;;;;;;5045291;28;20621;-73
2023/12/22 04:04:10;;;;;;;55.80;51.55;;;;;;;;;;5044633;28;20060;-74
2023/12/22 04:06:41;;;;;;;50.60;46.63;;;;;;;;;;5044676;28;20049;-75
2023/12/22 04:09:11;;;;;;;55.13;50.70;;;;;;;;;;5044383;28;20063;-75
2023/12/22 04:11:42;;;;;;;49.08;44.95;;;;;;;;;;5044702;28;20049;-74
2023/12/22 04:14:12;;;;;;;51.53;47.45;;;;;;;;;;5044538;28;20052;-73
2023/12/22 04:16:44;;;;;;;50.53;46.40;;;;;;;;;;5044596;28;20403;-74
2023/12/22 04:19:14;;;;;;;48.88;45.33;;;;;;;;;;5044571;28;20056;-73
2023/12/22 04:21:45;;;;;;;56.42;51.72;;;;;;;;;;5044225;28;20076;-74
2023/12/22 04:24:18;;;;;;;47.47;43.83;;;;;;;;;;5044596;28;20407;-74
2023/12/22 04:26:49;;;;;;;53.42;48.90;;;;;;;;;;5044656;28;20044;-75
2023/12/22 04:29:20;;;;;;;49.80;45.58;;;;;;;;;;5044412;28;20072;-75
2023/12/22 04:31:49;;;;;;;59.33;53.85;;;;;;;;;;5044727;28;20045;-74
2023/12/22 04:34:20;;;;;;;56.85;52.22;;;;;;;;;;5044521;28;20400;-75
2023/12/22 04:36:51;;;;;;;59.08;54.13;;;;;;;;;;5044047;28;20052;-74
2023/12/22 04:39:22;;;;;;;56.97;52.03;;;;;;;;;;5043603;28;20052;-74
2023/12/22 04:41:55;;;;;;;61.05;56.13;;;;;;;;;;5043671;28;20048;-75
2023/12/22 04:44:26;;;;;;;57.95;52.50;;;;;;;;;;5044227;28;20049;-74
2023/12/22 04:46:57;;;;;;;60.97;56.10;;;;;;;;;;5042969;28;20415;-74
2023/12/22 04:49:28;;;;;;;68.82;63.45;;;;;;;;;;5043712;28;20045;-73
2023/12/22 04:51:58;;;;;;;75.15;69.55;;;;;;;;;;5042124;28;20059;-75
2023/12/22 04:54:30;;;;;;;76.32;70.78;;;;;;;;;;5042555;28;20057;-73
2023/12/22 04:57:01;;;;;;;89.07;82.97;;;;;;;;;;5043310;28;20416;-75
2023/12/22 04:59:32;;;;;;;93.03;86.65;;;;;;;;;;5044089;28;20075;-74
2023/12/22 05:02:02;;;;;;;100.05;93.38;;;;;;;;;;5043941;28;20053;-75
2023/12/22 05:04:32;;;;;;;93.63;87.43;;;;;;;;;;5044345;28;20446;-75
2023/12/22 05:07:06;;;;;;;44.55;40.92;;;;;;;;;;5042074;28;20049;-74
2023/12/22 05:09:38;;;;;;;50.88;47.17;;;;;;;;;;5043056;28;20421;-75
2023/12/22 05:12:09;;;;;;;57.40;53.80;;;;;;;;;;5043986;28;20056;-75
2023/12/22 05:14:38;;;;;;;46.95;43.22;;;;;;;;;;5043106;28;20045;-74
2023/12/22 05:17:10;;;;;;;44.40;41.42;;;;;;;;;;5043508;28;20045;-75
2023/12/22 05:19:40;;;;;;;41.05;38.10;;;;;;;;;;5043496;28;20045;-75
2023/12/22 05:22:11;;;;;;;45.58;41.85;;;;;;;;;;5043752;28;20076;-75
2023/12/22 05:24:42;;;;;;;41.35;38.13;;;;;;;;;;5042848;28;20538;-76
2023/12/22 05:27:12;;;;;;;41.13;38.08;;;;;;;;;;5043047;28;20057;-73
2023/12/22 05:29:43;;;;;;;43.88;40.97;;;;;;;;;;5043489;28;20053;-75
2023/12/22 05:32:13;;;;;;;37.90;35.08;;;;;;;;;;5042918;28;20045;-75
2023/12/22 05:34:45;;;;;;;52.60;49.08;;;;;;;;;;5042560;28;20508;-72
2023/12/22 05:37:15;;;;;;;42.65;39.28;;;;;;;;;;5043034;28;21293;-76
2023/12/22 05:39:46;;;;;;;36.40;33.55;;;;;;;;;;5042839;28;20045;-73
2023/12/22 05:42:19;;;;;;;35.75;32.60;;;;;;;;;;5043012;28;20407;-74
2023/12/22 05:44:51;;;;;;;34.50;31.48;;;;;;;;;;5042739;28;20530;-72
2023/12/22 05:47:21;;;;;;;32.75;29.67;;;;;;;;;;5043027;28;20049;-74
2023/12/22 05:49:52;;;;;;;37.05;34.35;;;;;;;;;;5041747;28;20049;-74
2023/12/22 05:52:23;;;;;;;34.60;31.05;;;;;;;;;;5043199;28;20045;-74
2023/12/22 05:54:54;;;;;;;32.33;29.70;;;;;;;;;;5042788;28;20049;-74
2023/12/22 05:57:28;;;;;;;33.67;31.23;;;;;;;;;;5042510;28;20068;-73
2023/12/22 05:59:58;;;;;;;32.72;29.85;;;;;;;;;;5042475;28;20499;-74
2023/12/22 06:02:32;;;;;;;35.25;32.38;;;;;;;;;;5046479;28;20053;-73
2023/12/22 06:05:04;;;;;;;29.73;27.17;;;;;;;;;;5042551;28;20057;-73
2023/12/22 06:07:35;;;;;;;33.95;31.15;;;;;;;;;;5043051;28;20064;-75
2023/12/22 06:10:05;;;;;;;29.55;27.00;;;;;;;;;;5041980;28;20053;-75
2023/12/22 06:12:37;;;;;;;80.45;74.60;;;;;;;;;;5041835;28;20049;-73
2023/12/22 06:15:08;;;;;;;32.97;30.25;;;;;;;;;;5041610;28;20045;-76
2023/12/22 06:17:38;;;;;;;33.03;30.25;;;;;;;;;;5042652;28;20057;-74
2023/12/22 06:20:09;;;;;;;33.58;30.98;;;;;;;;;;5042702;28;20045;-74
2023/12/22 06:22:39;;;;;;;38.63;35.80;;;;;;;;;;5042032;28;20048;-75
2023/12/22 06:25:10;;;;;;;35.33;32.45;;;;;;;;;;5043029;28;20069;-74
2023/12/22 06:27:40;;;;;;;30.30;28.08;;;;;;;;;;5042742;28;20055;-75
2023/12/22 06:30:11;;;;;;;32.33;29.67;;;;;;;;;;5043138;28;20099;-73
2023/12/22 06:32:42;;;;;;;35.17;32.35;;;;;;;;;;5041989;28;20771;-73
2023/12/22 06:35:13;;;;;;;29.67;27.33;;;;;;;;;;5041648;28;20514;-75
2023/12/22 06:37:46;;;;;;;30.67;28.13;;;;;;;;;;5041987;28;20052;-75
2023/12/22 06:40:16;;;;;;;32.03;29.50;;;;;;;;;;5040621;28;20056;-75
2023/12/22 06:42:47;;;;;;;28.98;26.42;;;;;;;;;;5042041;28;20048;-73
2023/12/22 06:45:18;;;;;;;29.85;27.38;;;;;;;;;;5041723;28;20051;-74
2023/12/22 06:47:48;;;;;;;37.42;34.13;;;;;;;;;;5040446;28;20508;-75
2023/12/22 06:50:19;;;;;;;33.25;30.38;;;;;;;;;;5041737;28;20049;-75
2023/12/22 06:52:51;;;;;;;27.70;25.65;;;;;;;;;;5040551;28;20059;-73
2023/12/22 06:55:21;;;;;;;28.55;26.10;;;;;;;;;;5042537;28;20045;-73
2023/12/22 06:57:52;;;;;;;29.75;27.02;;;;;;;;;;5041400;28;20044;-73
2023/12/22 07:00:23;;;;;;;33.53;30.85;;;;;;;;;;5041868;28;20041;-74
2023/12/22 07:02:54;;;;;;;28.63;26.25;;;;;;;;;;5042021;28;20060;-75
2023/12/22 07:05:32;;;;;;;35.00;32.08;;;;;;;;;;5041971;28;20515;-75
2023/12/22 07:08:03;;;;;;;29.67;26.83;;;;;;;;;;5042560;28;20057;-72
2023/12/22 07:10:33;;;;;;;28.58;25.88;;;;;;;;;;5041179;28;20053;-74
2023/12/22 07:13:04;;;;;;;32.20;29.55;;;;;;;;;;5041580;28;20053;-74
2023/12/22 07:15:36;;;;;;;37.40;34.40;;;;;;;;;;5041473;28;20041;-74
2023/12/22 07:18:07;;;;;;;32.40;30.05;;;;;;;;;;5040407;28;20508;-73
2023/12/22 07:20:38;;;;;;;34.08;31.02;;;;;;;;;;5041133;28;20056;-75
2023/12/22 07:23:11;;;;;;;40.38;37.20;;;;;;;;;;5041319;28;20045;-75
2023/12/22 07:25:43;;;;;;;34.08;31.23;;;;;;;;;;5045443;28;20056;-74
2023/12/22 07:28:15;;;;;;;28.65;26.27;;;;;;;;;;5045501;28;20045;-73
2023/12/22 07:30:45;;;;;;;35.03;32.45;;;;;;;;;;5045370;28;20373;-74
2023/12/22 07:33:18;;;;;;;66.65;61.65;;;;;;;;;;5045171;28;20041;-75
2023/12/22 07:35:49;;;;;;;30.92;28.45;;;;;;;;;;5045034;28;20044;-74
2023/12/22 07:38:19;;;;;;;65.05;60.47;;;;;;;;;;5045348;28;20045;-74
2023/12/22 07:40:51;;;;;;;59.40;55.30;;;;;;;;;;5045355;28;20048;-73
2023/12/22 07:43:22;;;;;;;59.58;55.28;;;;;;;;;;5045024;28;20044;-74
2023/12/22 07:45:52;;;;;;;60.53;56.30;;;;;;;;;;5045050;28;20518;-74
2023/12/22 07:48:23;;;;;;;60.50;56.22;;;;;;;;;;5045828;28;20048;-72
2023/12/22 07:50:55;;;;;;;30.05;27.25;;;;;;;;;;5045228;28;20491;-75
2023/12/22 07:53:25;;;;;;;31.25;28.67;;;;;;;;;;5045260;28;20056;-74
2023/12/22 07:55:58;;;;;;;38.25;34.72;;;;;;;;;;5044810;28;20051;-74
2023/12/22 07:58:29;;;;;;;32.08;29.40;;;;;;;;;;5044270;28;20049;-73
2023/12/22 08:01:00;;;;;;;37.45;34.25;;;;;;;;;;5045000;28;20041;-75
2023/12/22 08:03:31;;;;;;;35.58;32.83;;;;;;;;;;5044446;28;20055;-74
2023/12/22 08:06:01;;;;;;;65.45;60.33;;;;;;;;;;5044833;28;21042;-75
2023/12/22 08:08:33;;;;;;;60.03;55.63;;;;;;;;;;5045101;28;20049;-74
2023/12/22 08:11:03;;;;;;;59.78;55.10;;;;;;;;;;5044408;28;20056;-74
2023/12/22 08:13:34;;;;;;;55.72;51.72;;;;;;;;;;5044555;28;20044;-75
2023/12/22 08:16:06;;;;;;;57.30;53.00;;;;;;;;;;5044679;28;20108;-76
2023/12/22 08:18:36;;;;;;;62.65;57.83;;;;;;;;;;5044560;28;20052;-75
2023/12/22 08:21:06;;;;;;;55.38;51.47;;;;;;;;;;5044511;28;20041;-75
2023/12/22 08:23:53;;;;;;;63.08;58.47;;;;;;;;;;5045267;28;20052;-72
2023/12/22 08:26:24;;;;;;;41.60;38.83;;;;;;;;;;5044229;28;20507;-76
2023/12/22 08:28:55;;;;;;;44.70;41.78;;;;;;;;;;5044115;28;20049;-73
2023/12/22 08:31:27;;;;;;;41.08;37.30;;;;;;;;;;5044446;28;20049;-74
2023/12/22 08:33:58;;;;;;;39.78;36.58;;;;;;;;;;5043175;28;20057;-75
2023/12/22 08:36:30;;;;;;;35.63;32.40;;;;;;;;;;5043704;28;20499;-73
2023/12/22 08:39:00;;;;;;;90.57;84.70;;;;;;;;;;5045067;28;20044;-74
2023/12/22 08:41:35;;;;;;;62.50;57.67;;;;;;;;;;5043709;28;20052;-74
2023/12/22 08:44:07;;;;;;;58.40;54.40;;;;;;;;;;5043683;28;20060;-74
2023/12/22 08:46:39;;;;;;;63.13;58.42;;;;;;;;;;5043718;28;20712;-75
2023/12/22 08:49:09;;;;;;;61.17;56.63;;;;;;;;;;5044050;28;20049;-75
2023/12/22 08:51:41;;;;;;;61.05;56.22;;;;;;;;;;5043748;28;20052;-73
2023/12/22 08:54:11;;;;;;;61.05;56.55;;;;;;;;;;5044297;28;20041;-72
2023/12/22 08:56:43;;;;;;;57.85;53.28;;;;;;;;;;5043955;28;20056;-76
2023/12/22 08:59:17;;;;;;;58.00;53.60;;;;;;;;;;5044061;28;20448;-72
2023/12/22 09:01:47;;;;;;;58.58;54.38;;;;;;;;;;5043058;28;20052;-76
2023/12/22 09:04:18;;;;;;;37.05;33.55;;;;;;;;;;5051338;28;20059;-75
2023/12/22 09:06:48;;;;;;;44.65;40.60;;;;;;;;;;5063710;28;20044;-76
2023/12/22 09:09:21;;;;;;;40.15;36.72;;;;;;;;;;5062866;28;20564;-73
2023/12/22 09:11:51;;;;;;;40.47;37.15;;;;;;;;;;5063733;28;20053;-73
2023/12/22 09:14:22;;;;;;;41.00;37.88;;;;;;;;;;5063088;28;20048;-74
2023/12/22 09:16:55;;;;;;;38.13;35.03;;;;;;;;;;5063198;28;20053;-75
2023/12/22 09:19:27;;;;;;;40.30;37.05;;;;;;;;;;5062935;28;20056;-75
2023/12/22 09:21:57;;;;;;;39.25;36.33;;;;;;;;;;5063567;28;20041;-75
2023/12/22 09:24:29;;;;;;;43.47;40.03;;;;;;;;;;5062942;28;20419;-85
2023/12/22 09:27:02;;;;;;;37.90;35.22;;;;;;;;;;5063426;28;20044;-75
2023/12/22 09:29:35;;;;;;;55.92;51.45;;;;;;;;;;5063620;28;20048;-76
2023/12/22 09:32:06;;;;;;;49.53;45.55;;;;;;;;;;5063126;28;20056;-76
2023/12/22 09:34:37;;;;;;;48.13;44.03;;;;;;;;;;5062199;28;20056;-74
2023/12/22 09:37:08;;;;;;;49.15;45.45;;;;;;;;;;5062954;28;20052;-76
2023/12/22 09:39:38;;;;;;;49.65;45.28;;;;;;;;;;5063145;28;20052;-73
2023/12/22 09:42:08;;;;;;;45.92;42.38;;;;;;;;;;5062715;28;20048;-75
2023/12/22 09:44:41;;;;;;;55.47;50.95;;;;;;;;;;5062758;28;20036;-76
2023/12/22 09:47:14;;;;;;;47.38;43.75;;;;;;;;;;5061900;28;20510;-75
2023/12/22 09:49:46;;;;;;;46.25;42.78;;;;;;;;;;5063070;28;20055;-76
2023/12/22 09:52:18;;;;;;;51.17;47.50;;;;;;;;;;5062655;28;20515;-74
2023/12/22 09:54:49;;;;;;;39.83;37.03;;;;;;;;;;5062691;28;20044;-80
2023/12/22 09:57:21;;;;;;;45.47;42.33;;;;;;;;;;5062528;28;20037;-75
2023/12/22 09:59:59;;;;;;;41.60;38.42;;;;;;;;;;5061414;28;20052;-75
2023/12/22 10:02:33;;;;;;;37.53;34.67;;;;;;;;;;5065243;28;20426;-75
2023/12/22 10:05:04;;;;;;;39.38;36.53;;;;;;;;;;5062506;28;20048;-76
2023/12/22 10:07:36;;;;;;;41.95;38.90;;;;;;;;;;5062408;28;20056;-74
2023/12/22 10:10:09;;;;;;;39.78;36.83;;;;;;;;;;5062402;28;20052;-76
2023/12/22 10:12:41;;;;;;;40.08;37.00;;;;;;;;;;5062846;28;20050;-80
2023/12/22 10:15:14;;;;;;;37.08;34.33;;;;;;;;;;5062982;28;20048;-75
2023/12/22 10:17:46;;;;;;;57.95;54.03;;;;;;;;;;5062876;28;20079;-75
2023/12/22 10:20:18;;;;;;;34.67;31.75;;;;;;;;;;5062232;28;20044;-77
2023/12/22 10:22:48;;;;;;;41.08;37.55;;;;;;;;;;5062045;28;20052;-76
2023/12/22 10:25:27;;;;;;;35.08;32.33;;;;;;;;;;5061717;28;20044;-80
2023/12/22 10:27:58;;;;;;;31.02;28.77;;;;;;;;;;5062074;28;20044;-83
2023/12/22 10:30:32;;;;;;;32.30;29.77;;;;;;;;;;5062124;28;20048;-76
2023/12/22 10:33:04;;;;;;;30.77;28.08;;;;;;;;;;5061077;28;20052;-76
2023/12/22 10:35:35;;;;;;;38.65;35.92;;;;;;;;;;5062154;28;20598;-76
2023/12/22 10:38:06;;;;;;;34.55;31.75;;;;;;;;;;5062358;28;20048;-75
2023/12/22 10:40:38;;;;;;;37.05;34.05;;;;;;;;;;5062232;28;20060;-74
2023/12/22 10:43:09;;;;;;;43.95;40.35;;;;;;;;;;5061895;28;20526;-75
2023/12/22 10:45:41;;;;;;;34.70;31.90;;;;;;;;;;5062414;28;20045;-75
2023/12/22 10:48:11;;;;;;;29.27;25.35;;;;;;;;;;5062993;28;20045;-75
2023/12/22 10:50:44;;;;;;;43.10;39.17;;;;;;;;;;5062763;28;20053;-77
2023/12/22 10:53:15;;;;;;;37.40;33.85;;;;;;;;;;5062783;28;20083;-74
2023/12/22 10:55:50;;;;;;;47.40;43.65;;;;;;;;;;5062037;28;20403;-74
2023/12/22 10:58:21;;;;;;;33.33;30.25;;;;;;;;;;5064957;28;20508;-76
2023/12/22 11:00:54;;;;;;;31.05;28.45;;;;;;;;;;5066099;28;20052;-76
2023/12/22 11:03:26;;;;;;;46.10;42.67;;;;;;;;;;5065899;28;20056;-77
2023/12/22 11:06:00;;;;;;;50.60;46.22;;;;;;;;;;5064835;28;20514;-75
2023/12/22 11:08:32;;;;;;;45.75;41.95;;;;;;;;;;5066100;28;20055;-76
2023/12/22 11:11:14;;;;;;;39.38;36.15;;;;;;;;;;5065475;28;20071;-75
2023/12/22 11:13:45;;;;;;;38.83;35.60;;;;;;;;;;5065388;28;20048;-76
2023/12/22 11:16:17;;;;;;;41.28;37.00;;;;;;;;;;5065101;28;20041;-76
2023/12/22 11:18:50;;;;;;;42.58;39.35;;;;;;;;;;5065948;28;20037;-77
2023/12/22 11:21:26;;;;;;;36.63;33.08;;;;;;;;;;5065492;28;20056;-77
2023/12/22 11:23:57;;;;;;;37.88;34.40;;;;;;;;;;5066098;28;20045;-76
2023/12/22 11:26:28;;;;;;;33.90;30.92;;;;;;;;;;5065647;28;20064;-75
2023/12/22 11:29:00;;;;;;;58.65;53.90;;;;;;;;;;5065351;28;20063;-75
2023/12/22 11:31:33;;;;;;;38.20;34.88;;;;;;;;;;5065329;28;20051;-76
2023/12/22 11:34:06;;;;;;;36.10;32.72;;;;;;;;;;5065871;28;20055;-75
2023/12/22 11:36:45;;;;;;;34.70;31.38;;;;;;;;;;5063913;28;20423;-75
2023/12/22 11:39:16;;;;;;;31.65;28.95;;;;;;;;;;5065623;28;20426;-76
2023/12/22 11:41:49;;;;;;;34.38;31.30;;;;;;;;;;5065198;28;20495;-75
2023/12/22 11:44:20;;;;;;;27.17;24.50;;;;;;;;;;5065299;28;20044;-76
2023/12/22 11:47:02;;;;;;;34.85;31.75;;;;;;;;;;5065157;28;20048;-76
2023/12/22 11:49:38;;;;;;;36.00;32.72;;;;;;;;;;5064615;28;20044;-80
2023/12/22 11:52:11;;;;;;;36.08;32.58;;;;;;;;;;5064860;28;20052;-76
2023/12/22 11:54:53;;;;;;;32.08;29.58;;;;;;;;;;5064961;28;20455;-75
2023/12/22 11:57:33;;;;;;;33.38;30.75;;;;;;;;;;5065307;28;20044;-82
2023/12/22 12:00:31;;;;;;;30.45;27.83;;;;;;;;;;5064720;28;20036;-76
2023/12/22 12:03:07;;;;;;;29.63;27.25;;;;;;;;;;5064605;28;20063;-74
2023/12/22 12:05:38;;;;;;;31.23;28.83;;;;;;;;;;5064918;28;20045;-76
2023/12/22 12:08:08;;;;;;;24.85;22.67;;;;;;;;;;5064500;28;20506;-76
2023/12/22 12:10:55;;;;;;;26.23;23.90;;;;;;;;;;5064528;28;20048;-76
2023/12/22 12:13:28;;;;;;;23.95;21.50;;;;;;;;;;5065003;28;20501;-78
2023/12/22 12:16:02;;;;;;;32.33;29.88;;;;;;;;;;5065107;28;20491;-76
2023/12/22 12:18:33;;;;;;;25.00;20.75;;;;;;;;;;5064035;28;20503;-75
2023/12/22 12:21:08;;;;;;;24.88;22.58;;;;;;;;;;5063798;28;20055;-76
2023/12/22 12:23:41;;;;;;;21.08;19.05;;;;;;;;;;5064117;28;20071;-76
2023/12/22 12:26:12;;;;;;;25.23;23.35;;;;;;;;;;5063899;28;20404;-83
2023/12/22 12:28:47;;;;;;;22.25;20.33;;;;;;;;;;5063122;28;20063;-83
2023/12/22 12:31:18;;;;;;;25.10;22.70;;;;;;;;;;5063043;28;20056;-75
2023/12/22 12:33:52;;;;;;;20.50;18.58;;;;;;;;;;5064226;28;20533;-73
2023/12/22 12:36:24;;;;;;;21.20;19.33;;;;;;;;;;5064511;28;20389;-75
2023/12/22 12:39:08;;;;;;;23.15;21.30;;;;;;;;;;5063051;28;20055;-75
2023/12/22 12:41:45;;;;;;;25.75;23.80;;;;;;;;;;5064135;28;20059;-76
2023/12/22 12:44:17;;;;;;;24.73;22.83;;;;;;;;;;5065337;28;20044;-75
2023/12/22 12:46:47;;;;;;;28.42;26.35;;;;;;;;;;5063539;28;20057;-79
2023/12/22 12:49:19;;;;;;;23.73;21.92;;;;;;;;;;5063533;28;20052;-75
2023/12/22 12:51:51;;;;;;;23.33;21.08;;;;;;;;;;5063801;28;20056;-76
2023/12/22 12:54:21;;;;;;;23.85;21.75;;;;;;;;;;5063178;28;20045;-76
2023/12/22 12:56:52;;;;;;;25.02;23.00;;;;;;;;;;5063143;28;20052;-75
2023/12/22 12:59:22;;;;;;;21.20;19.45;;;;;;;;;;5064180;28;20059;-76
2023/12/22 13:01:57;;;;;;;22.55;20.55;;;;;;;;;;5063967;28;20059;-76
2023/12/22 13:04:39;;;;;;;20.45;18.65;;;;;;;;;;5063854;28;20048;-83
2023/12/22 13:07:12;;;;;;;20.52;18.63;;;;;;;;;;5063031;28;20044;-77
2023/12/22 13:09:44;;;;;;;24.15;22.15;;;;;;;;;;5062173;28;20518;-81
2023/12/22 13:12:15;;;;;;;24.83;22.58;;;;;;;;;;5063995;28;20048;-75
2023/12/22 13:14:45;;;;;;;28.38;25.45;;;;;;;;;;5064057;28;20056;-76
2023/12/22 13:17:16;;;;;;;30.40;25.45;;;;;;;;;;5063431;28;20051;-78
2023/12/22 13:19:47;;;;;;;27.23;24.42;;;;;;;;;;5062896;28;20044;-76
2023/12/22 13:22:19;;;;;;;25.48;23.02;;;;;;;;;;5063026;28;20063;-81
2023/12/22 13:24:57;;;;;;;25.85;23.63;;;;;;;;;;5063660;28;20043;-77
2023/12/22 13:27:28;;;;;;;25.77;23.40;;;;;;;;;;5063189;28;20048;-77
2023/12/22 13:29:59;;;;;;;28.45;25.90;;;;;;;;;;5062588;28;20056;-75
2023/12/22 13:32:30;;;;;;;24.38;22.17;;;;;;;;;;5062616;28;20049;-75
2023/12/22 13:35:02;;;;;;;29.92;27.13;;;;;;;;;;5063154;28;20048;-75
2023/12/22 13:37:33;;;;;;;27.25;24.42;;;;;;;;;;5062948;28;20805;-76
2023/12/22 13:40:09;;;;;;;27.42;24.15;;;;;;;;;;5062068;28;20053;-76
2023/12/22 13:42:41;;;;;;;25.48;23.00;;;;;;;;;;5062675;28;20048;-76
2023/12/22 13:45:14;;;;;;;25.80;23.67;;;;;;;;;;5063513;28;20055;-75
2023/12/22 13:47:47;;;;;;;31.35;28.42;;;;;;;;;;5062580;28;20052;-76
2023/12/22 13:50:22;;;;;;;29.92;27.02;;;;;;;;;;5063082;28;20052;-75
2023/12/22 13:52:57;;;;;;;32.30;29.88;;;;;;;;;;5061276;28;20045;-73
2023/12/22 13:55:27;;;;;;;25.65;23.38;;;;;;;;;;5062539;28;20043;-76
2023/12/22 13:58:01;;;;;;;27.60;25.35;;;;;;;;;;5062419;28;20048;-79
2023/12/22 14:00:31;;;;;;;28.85;26.45;;;;;;;;;;5062582;28;20036;-77
2023/12/22 14:03:02;;;;;;;27.05;24.70;;;;;;;;;;5062337;28;20490;-76
2023/12/22 14:05:34;;;;;;;26.35;23.55;;;;;;;;;;5062854;28;20052;-74
2023/12/22 14:08:05;;;;;;;31.58;28.85;;;;;;;;;;5062565;28;20044;-75
2023/12/22 14:10:36;;;;;;;32.70;29.70;;;;;;;;;;5062606;28;20044;-79
2023/12/22 14:13:06;;;;;;;27.77;25.40;;;;;;;;;;5062672;28;20045;-76
2023/12/22 14:15:37;;;;;;;25.88;23.70;;;;;;;;;;5062454;28;20071;-75
2023/12/22 14:18:13;;;;;;;30.42;27.77;;;;;;;;;;5062334;28;20036;-75
2023/12/22 14:20:45;;;;;;;32.53;29.02;;;;;;;;;;5062111;28;20143;-76
2023/12/22 14:23:17;;;;;;;27.33;24.90;;;;;;;;;;5062956;28;20395;-79
2023/12/22 14:25:48;;;;;;;29.38;26.55;;;;;;;;;;5060754;28;20045;-76
2023/12/22 14:28:20;;;;;;;28.50;25.77;;;;;;;;;;5062817;28;20507;-75
2023/12/22 14:30:50;;;;;;;28.33;25.65;;;;;;;;;;5060753;28;20055;-75
2023/12/22 14:33:21;;;;;;;24.40;22.35;;;;;;;;;;5061926;28;20055;-77
2023/12/22 14:35:53;;;;;;;29.38;27.10;;;;;;;;;;5061944;28;20052;-75
2023/12/22 14:38:23;;;;;;;29.55;26.40;;;;;;;;;;5062389;28;20045;-76
2023/12/22 14:40:53;;;;;;;27.92;25.38;;;;;;;;;;5061989;28;20048;-76
2023/12/22 14:43:24;;;;;;;31.40;28.70;;;;;;;;;;5062281;28;20048;-75